Time;durP1;ratioP1;P1;durP2;ratioP2;P2;SDS_P1;SDS_P2;PMS_P1;PMS_P2;Temp;Humidity;BMP_temperature;BMP_pressure;BME280_temperature;BME280_humidity;BME280_pressure;Samples;Min_cycle;Max_cycle;Signal;HPM_P1;HPM_P2
2023/01/19 00:01:24;;;;;;;19.23;17.00;;;1.00;99.90;;;;;;5089433;28;20040;-78
2023/01/19 00:03:50;;;;;;;18.92;17.10;;;1.00;99.90;;;;;;5088540;28;20367;-78
2023/01/19 00:06:16;;;;;;;20.60;18.52;;;0.90;99.90;;;;;;5088256;28;20029;-78
2023/01/19 00:08:47;;;;;;;18.27;16.42;;;0.90;99.90;;;;;;5070747;28;20068;-78
2023/01/19 00:11:14;;;;;;;19.83;16.40;;;0.90;99.90;;;;;;5088478;28;20037;-78
2023/01/19 00:13:40;;;;;;;18.17;16.38;;;1.00;99.90;;;;;;5088298;28;20036;-78
2023/01/19 00:16:06;;;;;;;21.77;16.92;;;1.10;99.90;;;;;;5088451;28;20065;-78
2023/01/19 00:18:32;;;;;;;24.25;21.85;;;1.10;99.90;;;;;;5070154;28;20037;-78
2023/01/19 00:20:58;;;;;;;18.02;16.35;;;1.20;99.90;;;;;;5088039;28;20052;-78
2023/01/19 00:23:24;;;;;;;22.77;20.52;;;1.30;99.90;;;;;;5086976;28;20044;-78
2023/01/19 00:25:50;;;;;;;20.02;17.77;;;1.40;99.90;;;;;;5087925;28;20054;-77
2023/01/19 00:28:17;;;;;;;20.98;18.90;;;1.50;99.90;;;;;;5088061;28;20028;-78
2023/01/19 00:30:43;;;;;;;19.40;17.50;;;1.40;99.90;;;;;;5086769;28;20025;-79
2023/01/19 00:33:12;;;;;;;20.23;18.10;;;1.40;99.90;;;;;;5087740;28;20072;-78
2023/01/19 00:35:38;;;;;;;17.02;15.32;;;1.40;99.90;;;;;;5086667;28;20037;-79
2023/01/19 00:38:04;;;;;;;18.17;15.48;;;1.40;99.90;;;;;;5087724;28;20044;-78
2023/01/19 00:40:29;;;;;;;17.88;16.08;;;1.30;99.90;;;;;;5086719;28;20036;-78
2023/01/19 00:42:55;;;;;;;17.45;15.77;;;1.30;99.90;;;;;;5087717;28;20029;-78
2023/01/19 00:45:23;;;;;;;18.75;16.40;;;1.30;99.90;;;;;;5086667;28;20036;-78
2023/01/19 00:47:59;;;;;;;19.30;17.17;;;1.30;99.90;;;;;;5087542;28;20486;-78
2023/01/19 00:50:27;;;;;;;21.45;16.35;;;1.20;99.90;;;;;;5087024;28;20033;-79
2023/01/19 00:52:54;;;;;;;21.35;18.25;;;1.20;99.90;;;;;;5086304;28;20035;-78
2023/01/19 00:55:19;;;;;;;24.40;20.38;;;1.20;99.90;;;;;;5086472;28;20033;-78
2023/01/19 00:57:45;;;;;;;19.13;17.27;;;1.20;99.90;;;;;;5087548;28;20039;-78
2023/01/19 01:00:14;;;;;;;18.88;17.10;;;1.30;99.90;;;;;;5087565;28;20040;-78
2023/01/19 01:02:41;;;;;;;18.13;15.38;;;1.30;99.90;;;;;;5086370;28;20035;-78
2023/01/19 01:05:08;;;;;;;17.23;14.98;;;1.30;99.90;;;;;;5087031;28;20041;-78
2023/01/19 01:07:39;;;;;;;20.83;18.70;;;1.30;99.90;;;;;;5067379;28;20033;-78
2023/01/19 01:10:13;;;;;;;18.83;16.85;;;1.20;99.90;;;;;;5067301;28;20059;-78
2023/01/19 01:12:41;;;;;;;16.50;14.93;;;1.20;99.90;;;;;;5067378;28;20471;-78
2023/01/19 01:15:09;;;;;;;21.08;17.42;;;1.20;99.90;;;;;;5065931;28;20039;-78
2023/01/19 01:17:35;;;;;;;20.40;18.55;;;1.20;99.90;;;;;;5049613;28;20066;-79
2023/01/19 01:20:03;;;;;;;24.13;18.80;;;1.20;99.90;;;;;;5067944;28;20463;-79
2023/01/19 01:22:29;;;;;;;19.30;16.35;;;1.20;99.90;;;;;;5086815;28;20050;-78
2023/01/19 01:24:55;;;;;;;18.58;16.65;;;1.20;99.90;;;;;;5087089;28;20037;-79
2023/01/19 01:27:21;;;;;;;18.80;17.10;;;1.10;99.90;;;;;;5086803;28;20039;-78
2023/01/19 01:29:47;;;;;;;19.10;17.30;;;1.10;99.90;;;;;;5068911;28;20028;-78
2023/01/19 01:32:15;;;;;;;17.98;15.93;;;1.00;99.90;;;;;;5086508;28;20024;-79
2023/01/19 01:34:41;;;;;;;18.05;16.08;;;1.10;99.90;;;;;;5085292;28;20029;-78
2023/01/19 01:37:07;;;;;;;19.52;15.88;;;1.20;99.90;;;;;;5085287;28;20487;-78
2023/01/19 01:39:34;;;;;;;26.02;18.27;;;1.10;99.90;;;;;;5086705;28;20158;-79
2023/01/19 01:42:00;;;;;;;17.00;15.43;;;1.10;99.90;;;;;;5085402;28;20032;-78
2023/01/19 01:45:04;;;;;;;25.42;18.15;;;1.10;99.90;;;;;;5086477;28;20044;-78
2023/01/19 01:47:30;;;;;;;19.83;16.15;;;1.20;99.90;;;;;;5044479;28;20041;-78
2023/01/19 01:50:19;;;;;;;19.73;17.77;;;1.20;99.90;;;;;;5078660;28;20073;-78
2023/01/19 01:52:50;;;;;;;20.00;17.75;;;1.20;99.90;;;;;;5086487;28;20052;-78
2023/01/19 01:55:18;;;;;;;22.40;15.32;;;1.30;99.90;;;;;;5086417;28;20440;-78
2023/01/19 01:57:50;;;;;;;17.02;15.10;;;1.30;99.90;;;;;;5086408;28;20039;-79
2023/01/19 02:00:16;;;;;;;22.63;16.02;;;1.40;99.90;;;;;;5086325;28;20032;-78
2023/01/19 02:02:50;;;;;;;17.88;16.08;;;1.50;99.90;;;;;;5085491;28;20189;-78
2023/01/19 02:05:25;;;;;;;16.63;15.02;;;1.50;99.90;;;;;;5085834;28;20047;-78
2023/01/19 02:13:46;;;;;;;22.73;17.02;;;1.50;99.90;;;;;;5086134;28;20040;-79
2023/01/19 02:16:14;;;;;;;26.60;15.57;;;1.60;99.90;;;;;;5086210;28;20372;-79
2023/01/19 02:18:40;;;;;;;23.15;17.20;;;1.60;99.90;;;;;;5085849;28;20028;-79
2023/01/19 02:21:30;;;;;;;15.80;14.30;;;1.60;99.90;;;;;;5085833;28;20028;-78
2023/01/19 02:23:59;;;;;;;16.98;15.40;;;1.60;99.90;;;;;;5086062;28;20111;-78
2023/01/19 02:26:33;;;;;;;18.10;16.25;;;1.70;99.90;;;;;;5085593;28;20376;-78
2023/01/19 02:29:06;;;;;;;18.33;15.95;;;1.80;99.90;;;;;;5084790;28;20020;-78
2023/01/19 02:31:33;;;;;;;23.75;14.07;;;1.80;99.90;;;;;;5085646;28;20052;-78
2023/01/19 02:34:01;;;;;;;17.02;13.60;;;1.80;99.90;;;;;;5085784;28;20064;-78
2023/01/19 02:36:34;;;;;;;18.73;17.00;;;1.80;99.90;;;;;;5085831;28;20054;-79
2023/01/19 02:39:01;;;;;;;17.45;15.65;;;1.80;99.90;;;;;;5086022;28;20029;-78
2023/01/19 02:41:31;;;;;;;15.82;13.60;;;1.80;99.90;;;;;;5085394;28;20036;-78
2023/01/19 02:43:57;;;;;;;;;;;1.80;99.90;;;;;;5086175;28;20036;-79
2023/01/19 02:46:24;;;;;;;14.40;12.90;;;1.80;99.90;;;;;;5084665;28;19919;-78
2023/01/19 02:48:50;;;;;;;18.77;15.13;;;1.80;99.90;;;;;;5085563;28;20040;-79
2023/01/19 02:51:23;;;;;;;16.92;15.25;;;1.80;99.90;;;;;;5085591;28;20116;-78
2023/01/19 02:54:08;;;;;;;15.45;13.82;;;1.80;99.90;;;;;;5085802;28;20052;-77
2023/01/19 02:56:43;;;;;;;17.75;15.43;;;1.80;99.90;;;;;;5084286;28;20032;-79
2023/01/19 02:59:17;;;;;;;14.02;12.48;;;1.90;99.90;;;;;;5084228;28;20111;-78
2023/01/19 03:02:28;;;;;;;14.88;13.45;;;1.90;99.90;;;;;;5085537;28;20386;-78
2023/01/19 03:05:12;;;;;;;17.48;14.98;;;1.90;99.90;;;;;;5071181;28;20064;-78
2023/01/19 03:08:06;;;;;;;16.63;14.70;;;1.90;99.90;;;;;;5085679;28;20033;-79
2023/01/19 03:10:59;;;;;;;14.88;11.90;;;2.00;99.90;;;;;;5067557;28;20028;-78
2023/01/19 03:13:47;;;;;;;16.65;14.18;;;2.00;99.90;;;;;;5083233;28;20073;-79
2023/01/19 03:16:21;;;;;;;19.15;14.38;;;2.00;99.90;;;;;;5088379;28;20028;-79
2023/01/19 03:18:53;;;;;;;19.67;15.27;;;1.90;99.90;;;;;;5089405;28;20033;-79
2023/01/19 03:21:25;;;;;;;15.18;13.68;;;1.90;99.90;;;;;;5089697;28;20029;-79
2023/01/19 03:23:52;;;;;;;16.35;14.68;;;1.90;99.90;;;;;;5089325;28;20037;-78
2023/01/19 03:26:23;;;;;;;15.07;13.48;;;1.90;99.90;;;;;;5071433;28;20439;-79
2023/01/19 03:28:51;;;;;;;20.10;15.27;;;1.90;99.90;;;;;;5088945;28;20029;-78
2023/01/19 03:31:21;;;;;;;18.90;14.25;;;1.90;99.90;;;;;;5088009;28;20087;-78
2023/01/19 03:33:52;;;;;;;15.82;14.32;;;1.90;99.90;;;;;;5088987;28;20098;-78
2023/01/19 03:36:42;;;;;;;22.42;15.65;;;1.90;99.90;;;;;;5089047;28;20041;-79
2023/01/19 03:39:09;;;;;;;;;;;1.90;99.90;;;;;;5088170;28;20032;-79
2023/01/19 03:41:36;;;;;;;19.40;14.55;;;1.90;99.90;;;;;;5087775;28;19913;-78
2023/01/19 03:44:05;;;;;;;22.38;15.80;;;1.80;99.90;;;;;;5053948;28;20029;-79
2023/01/19 03:46:32;;;;;;;19.58;15.18;;;1.80;99.90;;;;;;5088904;28;20032;-79
2023/01/19 03:48:58;;;;;;;17.60;13.65;;;1.80;99.90;;;;;;5088792;28;20048;-79
2023/01/19 03:51:24;;;;;;;21.13;14.65;;;1.70;99.90;;;;;;5087482;28;20016;-79
2023/01/19 03:53:50;;;;;;;18.92;14.15;;;1.70;99.90;;;;;;5088564;28;20033;-79
2023/01/19 03:56:17;;;;;;;14.45;12.85;;;1.60;99.90;;;;;;5087421;28;20093;-79
2023/01/19 03:58:44;;;;;;;15.20;13.45;;;1.60;99.90;;;;;;5088914;28;20028;-78
2023/01/19 04:01:09;;;;;;;18.35;14.23;;;1.60;99.90;;;;;;5088730;28;20042;-79
2023/01/19 04:03:35;;;;;;;17.90;16.13;;;1.60;99.90;;;;;;5088599;28;20056;-79
2023/01/19 04:06:01;;;;;;;16.25;14.52;;;1.50;99.90;;;;;;5088111;28;20054;-78
2023/01/19 04:08:27;;;;;;;15.73;14.18;;;1.50;99.90;;;;;;5087295;28;20028;-78
2023/01/19 04:10:56;;;;;;;17.23;15.63;;;1.40;99.90;;;;;;5088691;28;20024;-78
2023/01/19 04:13:22;;;;;;;16.05;14.57;;;1.40;99.90;;;;;;5087398;28;20036;-77
2023/01/19 04:15:47;;;;;;;22.85;14.85;;;1.30;99.90;;;;;;5087374;28;20033;-78
2023/01/19 04:18:13;;;;;;;24.70;16.85;;;1.30;99.90;;;;;;5088415;28;20459;-78
2023/01/19 04:20:39;;;;;;;18.58;15.98;;;1.20;99.90;;;;;;5087089;28;20043;-77
2023/01/19 04:23:05;;;;;;;17.20;15.50;;;1.20;99.90;;;;;;5088399;28;20052;-78
2023/01/19 04:25:30;;;;;;;20.67;16.83;;;1.30;99.90;;;;;;5087384;28;20365;-78
2023/01/19 04:27:59;;;;;;;19.20;15.57;;;1.20;99.90;;;;;;5088214;28;20234;-78
2023/01/19 04:30:26;;;;;;;22.08;17.23;;;1.20;99.90;;;;;;5088165;28;20104;-78
2023/01/19 04:32:54;;;;;;;18.48;16.60;;;1.20;99.90;;;;;;5088185;28;20457;-78
2023/01/19 04:35:21;;;;;;;17.50;15.80;;;1.20;99.90;;;;;;5086783;28;20032;-78
2023/01/19 04:37:47;;;;;;;13.88;12.43;;;1.20;99.90;;;;;;5088117;28;20032;-78
2023/01/19 04:40:13;;;;;;;21.58;16.55;;;1.20;99.90;;;;;;5088302;28;20033;-78
2023/01/19 04:42:43;;;;;;;18.42;16.38;;;1.20;99.90;;;;;;5086882;28;20046;-78
2023/01/19 04:45:13;;;;;;;18.13;16.42;;;1.20;99.90;;;;;;5087963;28;20481;-78
2023/01/19 04:47:39;;;;;;;11.68;10.63;;;1.20;99.90;;;;;;5087832;28;20021;-78
2023/01/19 04:50:06;;;;;;;18.10;14.52;;;1.20;99.90;;;;;;5087855;28;20025;-78
2023/01/19 04:52:34;;;;;;;16.55;14.90;;;1.20;99.90;;;;;;5087753;28;20036;-77
2023/01/19 04:55:03;;;;;;;19.63;15.38;;;1.20;99.90;;;;;;5087855;28;20033;-78
2023/01/19 04:57:29;;;;;;;18.33;16.27;;;1.20;99.90;;;;;;5087787;28;20058;-78
2023/01/19 04:59:56;;;;;;;17.40;15.48;;;1.10;99.90;;;;;;5087746;28;20037;-78
2023/01/19 05:02:22;;;;;;;17.35;14.68;;;1.20;99.90;;;;;;5087595;28;20033;-78
2023/01/19 05:04:48;;;;;;;16.38;14.75;;;1.10;99.90;;;;;;5087472;28;20181;-78
2023/01/19 05:07:14;;;;;;;18.38;16.52;;;1.10;99.90;;;;;;5087632;28;20025;-78
2023/01/19 05:09:40;;;;;;;19.92;17.75;;;1.10;99.90;;;;;;5087517;28;20032;-78
2023/01/19 05:12:06;;;;;;;17.08;15.45;;;1.10;99.90;;;;;;5087558;28;20032;-78
2023/01/19 05:14:32;;;;;;;14.88;13.65;;;1.00;99.90;;;;;;5087418;28;20040;-78
2023/01/19 05:16:58;;;;;;;16.67;14.77;;;1.10;99.90;;;;;;5085994;28;20036;-78
2023/01/19 05:19:24;;;;;;;16.65;14.95;;;1.00;99.90;;;;;;5084966;28;20052;-78
2023/01/19 05:21:49;;;;;;;14.00;12.75;;;1.20;99.90;;;;;;5086859;28;20032;-78
2023/01/19 05:24:15;;;;;;;16.67;14.98;;;1.10;99.90;;;;;;5086258;28;20047;-79
2023/01/19 05:26:41;;;;;;;18.33;16.52;;;1.20;99.90;;;;;;5086761;28;20031;-78
2023/01/19 05:29:07;;;;;;;14.75;13.45;;;1.00;99.90;;;;;;5085141;28;20039;-79
2023/01/19 05:31:34;;;;;;;16.95;15.23;;;1.10;99.90;;;;;;5085442;28;20032;-79
2023/01/19 05:33:59;;;;;;;16.95;15.30;;;1.10;99.90;;;;;;5084144;28;20059;-79
2023/01/19 05:36:26;;;;;;;20.27;18.30;;;1.40;99.90;;;;;;5085052;28;20040;-80
2023/01/19 05:38:52;;;;;;;15.95;14.30;;;1.00;99.90;;;;;;5086647;28;20024;-80
2023/01/19 05:41:18;;;;;;;18.83;17.13;;;1.00;99.90;;;;;;5068650;28;20562;-80
2023/01/19 05:43:44;;;;;;;20.10;17.30;;;1.00;99.90;;;;;;5086183;28;20088;-79
2023/01/19 05:46:10;;;;;;;18.40;16.60;;;1.10;99.90;;;;;;5068356;28;20017;-79
2023/01/19 05:48:37;;;;;;;17.27;15.00;;;1.00;99.90;;;;;;5085113;28;20458;-79
2023/01/19 05:51:04;;;;;;;17.55;15.80;;;1.00;99.90;;;;;;5086258;28;20082;-78
2023/01/19 05:53:30;;;;;;;16.30;14.75;;;1.00;99.90;;;;;;5085137;28;20032;-79
2023/01/19 05:56:05;;;;;;;19.85;16.35;;;1.00;99.90;;;;;;5068133;28;20078;-79
2023/01/19 05:58:33;;;;;;;21.98;18.02;;;1.10;99.90;;;;;;5086331;28;20039;-79
2023/01/19 06:01:04;;;;;;;19.13;17.25;;;1.00;99.90;;;;;;5085948;28;20027;-79
2023/01/19 06:03:31;;;;;;;20.80;18.65;;;1.00;99.90;;;;;;5086277;28;20035;-79
2023/01/19 06:05:58;;;;;;;17.75;15.88;;;1.00;99.90;;;;;;5084366;28;20020;-78
2023/01/19 06:08:24;;;;;;;18.45;16.67;;;1.00;99.90;;;;;;5086061;28;20041;-79
2023/01/19 06:10:50;;;;;;;20.52;18.63;;;1.10;99.90;;;;;;5081421;28;20041;-79
2023/01/19 06:13:17;;;;;;;16.00;14.32;;;1.20;99.90;;;;;;5067366;28;20077;-79
2023/01/19 06:15:43;;;;;;;15.38;13.98;;;;;;;;;;5084549;28;20020;-80
2023/01/19 06:18:11;;;;;;;18.38;16.73;;;1.00;99.90;;;;;;5085378;28;20128;-79
2023/01/19 06:20:38;;;;;;;15.95;14.40;;;1.00;99.90;;;;;;5083041;28;20041;-81
2023/01/19 06:23:03;;;;;;;14.60;13.35;;;1.10;99.90;;;;;;5084143;28;20053;-80
2023/01/19 06:25:29;;;;;;;15.02;13.70;;;1.00;99.90;;;;;;5085105;28;20099;-79
2023/01/19 06:27:55;;;;;;;15.65;14.15;;;1.00;99.90;;;;;;5070774;28;20100;-80
2023/01/19 06:30:21;;;;;;;17.58;15.88;;;1.00;99.90;;;;;;5049861;28;20028;-80
2023/01/19 06:32:47;;;;;;;17.52;15.98;;;0.60;99.90;;;;;;5085277;28;20072;-79
2023/01/19 06:35:16;;;;;;;16.15;14.60;;;1.00;99.90;;;;;;5083264;28;20047;-80
2023/01/19 06:37:42;;;;;;;20.30;16.67;;;1.10;99.90;;;;;;5084918;28;20427;-79
2023/01/19 06:40:08;;;;;;;16.35;14.90;;;1.10;99.90;;;;;;5085528;28;20017;-79
2023/01/19 06:42:34;;;;;;;47.47;43.28;;;1.10;99.90;;;;;;5084441;28;20065;-79
2023/01/19 06:45:00;;;;;;;59.35;52.75;;;1.10;99.90;;;;;;5085123;28;20048;-79
2023/01/19 06:47:26;;;;;;;25.17;22.50;;;1.10;99.90;;;;;;5086119;28;20075;-79
2023/01/19 06:49:53;;;;;;;47.95;42.08;;;1.10;99.90;;;;;;5084889;28;20029;-79
2023/01/19 06:52:19;;;;;;;39.80;34.60;;;1.10;99.90;;;;;;5085629;28;20140;-79
2023/01/19 06:54:48;;;;;;;35.85;32.05;;;1.10;99.90;;;;;;5079942;28;20056;-79
2023/01/19 06:57:14;;;;;;;21.38;19.40;;;1.10;99.90;;;;;;5070104;28;20028;-79
2023/01/19 06:59:40;;;;;;;24.33;21.75;;;1.10;99.90;;;;;;5086729;28;20435;-79
2023/01/19 07:02:06;;;;;;;21.73;19.75;;;1.20;99.90;;;;;;5088566;28;20036;-78
2023/01/19 07:04:32;;;;;;;18.08;16.20;;;1.10;99.90;;;;;;5089336;28;20048;-79
2023/01/19 07:06:58;;;;;;;20.98;18.80;;;1.10;99.90;;;;;;5080251;28;20028;-78
2023/01/19 07:09:24;;;;;;;25.13;22.75;;;1.10;99.90;;;;;;5093079;28;20033;-78
2023/01/19 07:11:52;;;;;;;31.88;26.40;;;1.10;99.90;;;;;;5078034;28;20037;-79
2023/01/19 07:14:18;;;;;;;44.05;36.97;;;1.00;99.90;;;;;;5090900;28;20032;-79
2023/01/19 07:16:43;;;;;;;21.88;19.90;;;1.10;99.90;;;;;;5092990;28;20009;-78
2023/01/19 07:19:09;;;;;;;32.42;29.10;;;1.10;99.90;;;;;;5093008;28;20032;-79
2023/01/19 07:21:36;;;;;;;29.98;26.88;;;1.00;99.90;;;;;;5095125;28;20036;-79
2023/01/19 07:24:02;;;;;;;30.90;27.60;;;1.10;99.90;;;;;;5097257;28;20025;-78
2023/01/19 07:26:27;;;;;;;34.70;30.20;;;1.00;99.90;;;;;;5095250;28;20048;-79
2023/01/19 07:28:53;;;;;;;51.78;39.70;;;1.00;99.90;;;;;;5096990;28;20037;-79
2023/01/19 07:31:20;;;;;;;29.42;26.45;;;1.10;99.90;;;;;;5093548;28;20032;-78
2023/01/19 07:33:46;;;;;;;24.80;22.25;;;1.10;99.90;;;;;;5077155;28;20032;-78
2023/01/19 07:36:13;;;;;;;22.65;20.20;;;1.20;99.90;;;;;;5096706;28;20100;-78
2023/01/19 07:38:38;;;;;;;30.75;24.95;;;1.20;99.90;;;;;;5095823;28;20041;-79
2023/01/19 07:41:08;;;;;;;29.75;26.58;;;1.20;99.90;;;;;;5092923;28;20029;-79
2023/01/19 07:43:34;;;;;;;33.13;29.40;;;1.20;99.90;;;;;;5070376;28;20558;-79
2023/01/19 07:46:03;;;;;;;26.13;23.48;;;1.20;99.90;;;;;;5088595;28;20111;-78
2023/01/19 07:48:29;;;;;;;27.88;25.23;;;1.20;99.90;;;;;;5120336;28;20020;-79
2023/01/19 07:51:07;;;;;;;32.35;24.80;;;1.20;99.90;;;;;;5087288;28;20086;-78
2023/01/19 07:53:33;;;;;;;28.88;23.92;;;1.20;99.90;;;;;;5086752;28;20032;-78
2023/01/19 07:55:59;;;;;;;33.50;28.65;;;1.20;99.90;;;;;;5085096;28;20028;-79
2023/01/19 07:58:25;;;;;;;29.70;26.58;;;1.20;99.90;;;;;;5084547;28;20020;-78
2023/01/19 08:00:51;;;;;;;28.23;25.42;;;1.30;99.90;;;;;;5087242;28;20024;-79
2023/01/19 08:03:17;;;;;;;27.80;24.85;;;1.20;99.90;;;;;;5088099;28;20082;-79
2023/01/19 08:05:48;;;;;;;32.47;28.38;;;1.20;99.90;;;;;;5088192;28;20444;-78
2023/01/19 08:08:14;;;;;;;30.23;26.85;;;1.20;99.90;;;;;;5068804;28;20029;-78
2023/01/19 08:10:40;;;;;;;27.25;24.60;;;1.20;99.90;;;;;;5067258;28;20027;-78
2023/01/19 08:13:07;;;;;;;30.67;27.45;;;1.20;99.90;;;;;;5068421;28;20025;-78
2023/01/19 08:15:32;;;;;;;33.65;29.00;;;1.20;99.90;;;;;;5068693;28;20048;-79
2023/01/19 08:18:00;;;;;;;36.28;27.92;;;1.30;99.90;;;;;;5050489;28;20395;-78
2023/01/19 08:20:27;;;;;;;33.10;28.45;;;1.30;99.90;;;;;;5071998;28;20028;-78
2023/01/19 08:22:58;;;;;;;32.28;27.73;;;1.30;99.90;;;;;;5087256;28;20025;-77
2023/01/19 08:25:33;;;;;;;41.97;28.52;;;1.50;99.90;;;;;;5085426;28;20475;-78
2023/01/19 08:28:00;;;;;;;37.63;23.85;;;1.40;99.90;;;;;;5088083;28;20553;-78
2023/01/19 08:30:26;;;;;;;40.95;30.80;;;1.50;99.90;;;;;;5088289;28;20036;-78
2023/01/19 08:32:56;;;;;;;36.40;26.20;;;1.50;99.90;;;;;;5087677;28;20041;-78
2023/01/19 08:35:22;;;;;;;32.50;25.13;;;1.50;99.90;;;;;;5088271;28;20021;-78
2023/01/19 08:37:49;;;;;;;29.88;24.25;;;1.50;99.90;;;;;;5088128;28;20526;-78
2023/01/19 08:40:17;;;;;;;29.73;26.85;;;1.50;99.90;;;;;;5088088;28;20399;-78
2023/01/19 08:42:42;;;;;;;30.13;26.60;;;1.50;99.90;;;;;;5086796;28;20477;-78
2023/01/19 08:45:09;;;;;;;27.38;24.58;;;1.60;99.90;;;;;;5087560;28;20033;-77
2023/01/19 08:47:34;;;;;;;26.98;24.40;;;1.60;99.90;;;;;;5087958;28;20463;-77
2023/01/19 08:50:01;;;;;;;28.98;26.25;;;1.60;99.90;;;;;;5087714;28;20032;-78
2023/01/19 08:52:28;;;;;;;35.95;26.92;;;1.60;99.90;;;;;;5120603;28;20200;-77
2023/01/19 08:54:53;;;;;;;33.20;25.52;;;1.70;99.90;;;;;;5087840;28;20036;-77
2023/01/19 08:57:19;;;;;;;31.83;26.95;;;1.70;99.90;;;;;;5087642;28;20128;-77
2023/01/19 08:59:46;;;;;;;25.60;22.83;;;1.70;99.90;;;;;;5081772;28;20040;-77
2023/01/19 09:02:12;;;;;;;30.38;25.58;;;1.70;99.90;;;;;;5066408;28;20029;-77
2023/01/19 09:04:37;;;;;;;34.75;26.13;;;1.80;99.90;;;;;;5099795;28;20151;-77
2023/01/19 09:07:03;;;;;;;27.98;24.02;;;1.90;99.90;;;;;;5066060;28;20093;-77
2023/01/19 09:09:29;;;;;;;26.70;22.23;;;1.90;99.90;;;;;;5067608;28;20088;-77
2023/01/19 09:11:55;;;;;;;27.10;23.92;;;2.00;99.90;;;;;;5066696;28;20052;-77
2023/01/19 09:14:20;;;;;;;32.03;22.83;;;1.90;99.90;;;;;;5067320;28;20033;-77
2023/01/19 09:16:46;;;;;;;32.35;24.27;;;1.90;99.90;;;;;;5084991;28;20043;-77
2023/01/19 09:19:12;;;;;;;29.30;23.98;;;2.00;99.90;;;;;;5087182;28;20063;-77
2023/01/19 09:21:38;;;;;;;27.42;23.98;;;2.10;99.90;;;;;;5085737;28;20039;-77
2023/01/19 09:24:04;;;;;;;29.45;20.98;;;2.30;99.90;;;;;;5085940;28;20451;-77
2023/01/19 09:26:30;;;;;;;22.73;20.42;;;2.40;99.90;;;;;;5085511;28;20049;-77
2023/01/19 09:28:56;;;;;;;21.75;19.38;;;2.40;99.90;;;;;;5087165;28;20032;-77
2023/01/19 09:31:23;;;;;;;23.27;20.55;;;2.40;99.90;;;;;;5087024;28;20050;-78
2023/01/19 09:33:49;;;;;;;28.30;23.25;;;2.50;99.90;;;;;;5105303;28;20104;-78
2023/01/19 09:36:14;;;;;;;22.48;18.63;;;3.20;99.90;;;;;;5071923;28;20158;-77
2023/01/19 09:38:40;;;;;;;23.17;19.77;;;3.50;99.90;;;;;;5077409;28;20032;-78
2023/01/19 09:41:20;;;;;;;19.50;17.45;;;3.60;99.90;;;;;;5086775;28;20033;-77
2023/01/19 09:43:49;;;;;;;;;;;3.50;99.90;;;;;;5086750;28;20031;-77
2023/01/19 09:46:27;;;;;;;32.15;21.58;;;3.30;99.90;;;;;;5085470;28;19909;-78
2023/01/19 09:48:56;;;;;;;18.95;16.95;;;3.70;99.90;;;;;;5085381;28;20043;-78
2023/01/19 09:51:35;;;;;;;17.25;12.88;;;3.70;99.90;;;;;;5081173;28;20025;-77
2023/01/19 09:54:34;;;;;;;24.10;17.85;;;3.90;99.90;;;;;;5069760;28;20029;-77
2023/01/19 09:57:00;;;;;;;27.63;18.70;;;3.60;99.90;;;;;;5083730;28;20028;-77
2023/01/19 09:59:31;;;;;;;26.90;18.20;;;3.70;99.90;;;;;;5086315;28;20036;-78
2023/01/19 10:02:02;;;;;;;23.20;17.58;;;4.00;99.90;;;;;;5078883;28;20029;-77
2023/01/19 10:04:33;;;;;;;21.35;16.35;;;4.90;99.90;;;;;;5069802;28;20059;-78
2023/01/19 10:07:23;;;;;;;20.00;15.38;;;5.50;99.90;;;;;;5066396;28;20029;-77
2023/01/19 10:10:04;;;;;;;23.73;15.65;;;6.50;99.90;;;;;;5079634;28;20032;-77
2023/01/19 10:12:52;;;;;;;23.65;16.05;;;5.60;99.90;;;;;;5086191;28;20025;-78
2023/01/19 10:15:24;;;;;;;19.02;15.95;;;4.70;99.90;;;;;;5085990;28;20017;-77
2023/01/19 10:18:11;;;;;;;15.23;13.75;;;3.90;99.90;;;;;;5086177;28;20029;-78
2023/01/19 10:20:41;;;;;;;15.52;13.73;;;3.70;99.90;;;;;;5086170;28;20028;-78
2023/01/19 10:23:39;;;;;;;15.95;12.30;;;3.50;99.90;;;;;;5085031;28;20032;-77
2023/01/19 10:26:15;;;;;;;15.30;12.90;;;3.40;99.90;;;;;;5084149;28;20052;-77
2023/01/19 10:28:42;;;;;;;15.50;13.70;;;3.20;99.90;;;;;;5085704;28;20410;-77
2023/01/19 10:31:08;;;;;;;18.00;13.40;;;3.10;99.90;;;;;;5086098;28;20086;-77
2023/01/19 10:33:35;;;;;;;15.82;13.77;;;3.00;99.90;;;;;;5084650;28;20052;-77
2023/01/19 10:36:14;;;;;;;12.77;11.32;;;3.00;99.90;;;;;;5084470;28;20092;-77
2023/01/19 10:38:40;;;;;;;12.23;10.48;;;3.00;99.90;;;;;;5084674;28;20029;-78
2023/01/19 10:41:24;;;;;;;11.20;10.10;;;3.00;99.90;;;;;;5084663;28;20110;-78
2023/01/19 10:44:00;;;;;;;10.68;9.65;;;2.90;99.90;;;;;;5085539;28;20499;-77
2023/01/19 10:46:42;;;;;;;14.68;10.95;;;2.90;99.90;;;;;;5084646;28;20387;-77
2023/01/19 10:49:27;;;;;;;14.27;12.70;;;4.30;99.90;;;;;;5118424;28;20029;-78
2023/01/19 10:51:56;;;;;;;18.33;11.10;;;5.70;99.90;;;;;;5085727;28;20033;-77
2023/01/19 10:54:23;;;;;;;24.00;13.00;;;7.70;99.90;;;;;;5085787;28;20051;-77
2023/01/19 10:56:57;;;;;;;14.52;11.35;;;8.40;99.90;;;;;;5085720;28;20039;-77
2023/01/19 10:59:33;;;;;;;18.67;14.35;;;9.30;99.90;;;;;;5085570;28;20029;-77
2023/01/19 11:02:20;;;;;;;14.60;13.13;;;9.50;99.90;;;;;;5081862;28;20102;-77
2023/01/19 11:04:48;;;;;;;12.68;10.45;;;9.50;99.90;;;;;;5064363;28;20044;-77
2023/01/19 11:07:31;;;;;;;12.55;10.48;;;9.80;99.90;;;;;;5071712;28;20379;-77
2023/01/19 11:10:12;;;;;;;18.05;10.15;;;9.30;99.90;;;;;;5085553;28;20040;-77
2023/01/19 11:13:00;;;;;;;19.77;11.95;;;8.30;99.90;;;;;;5085804;28;20024;-77
2023/01/19 11:15:46;;;;;;;14.95;8.82;;;7.00;99.90;;;;;;5083655;28;20092;-78
2023/01/19 11:18:36;;;;;;;23.67;14.05;;;6.50;99.90;;;;;;5085680;28;20033;-77
2023/01/19 11:21:06;;;;;;;;;;;6.40;99.90;;;;;;5084284;28;20041;-78
2023/01/19 11:23:44;;;;;;;;;;;5.90;99.90;;;;;;5085034;28;19909;-78
2023/01/19 11:26:23;;;;;;;14.85;12.63;;;5.60;99.90;;;;;;5084326;28;19919;-78
2023/01/19 11:28:50;;;;;;;18.05;10.80;;;5.10;99.90;;;;;;5084049;28;20108;-78
2023/01/19 11:31:18;;;;;;;20.40;13.35;;;5.00;99.90;;;;;;5084572;28;20248;-78
2023/01/19 11:33:49;;;;;;;16.08;13.13;;;5.30;99.90;;;;;;5086030;28;20090;-77
2023/01/19 11:36:20;;;;;;;16.25;12.88;;;6.00;99.90;;;;;;5089238;28;20039;-78
2023/01/19 11:38:49;;;;;;;15.90;12.95;;;6.40;99.90;;;;;;5087605;28;20055;-77
2023/01/19 11:41:21;;;;;;;23.20;13.50;;;6.60;99.90;;;;;;5089057;28;20063;-78
2023/01/19 11:44:10;;;;;;;14.13;12.52;;;7.00;99.90;;;;;;5088720;28;20116;-78
2023/01/19 11:46:40;;;;;;;19.70;13.23;;;7.30;99.90;;;;;;5087495;28;20021;-78
2023/01/19 11:49:18;;;;;;;14.98;9.75;;;6.90;99.90;;;;;;5087834;28;20282;-78
2023/01/19 11:52:02;;;;;;;14.40;12.45;;;7.10;99.90;;;;;;5070833;28;20036;-77
2023/01/19 11:54:33;;;;;;;23.98;16.33;;;6.60;99.90;;;;;;5068895;28;20033;-77
2023/01/19 11:56:59;;;;;;;15.68;10.60;;;6.20;99.90;;;;;;5068773;28;20453;-77
2023/01/19 11:59:25;;;;;;;13.55;9.88;;;5.80;99.90;;;;;;5067497;28;20126;-78
2023/01/19 12:01:58;;;;;;;17.25;9.93;;;6.00;99.90;;;;;;5079143;28;20078;-77
2023/01/19 12:04:43;;;;;;;15.98;10.95;;;6.30;99.90;;;;;;5088685;28;20086;-77
2023/01/19 12:07:11;;;;;;;24.83;15.70;;;6.40;99.90;;;;;;5088753;28;20051;-77
2023/01/19 12:09:44;;;;;;;14.07;10.48;;;6.20;99.90;;;;;;5088123;28;20464;-77
2023/01/19 12:12:23;;;;;;;17.27;11.70;;;6.20;99.90;;;;;;5088785;28;20467;-76
2023/01/19 12:15:05;;;;;;;11.75;9.60;;;6.10;99.90;;;;;;5087546;28;20115;-77
2023/01/19 12:17:36;;;;;;;24.48;21.55;;;6.00;99.90;;;;;;5088438;28;20025;-76
2023/01/19 12:20:30;;;;;;;16.02;12.77;;;5.80;99.90;;;;;;5088255;28;20042;-77
2023/01/19 12:23:08;;;;;;;17.60;14.02;;;5.70;99.90;;;;;;5088635;28;20033;-77
2023/01/19 12:25:52;;;;;;;25.73;20.85;;;5.40;99.90;;;;;;5088133;28;20083;-77
2023/01/19 12:28:29;;;;;;;19.58;12.57;;;5.30;99.90;;;;;;5088263;28;20032;-76
2023/01/19 12:30:57;;;;;;;19.00;15.20;;;5.00;99.90;;;;;;5086631;28;20024;-76
2023/01/19 12:33:38;;;;;;;27.45;15.60;;;4.90;99.90;;;;;;5086694;28;20029;-77
2023/01/19 12:36:29;;;;;;;15.30;13.40;;;4.90;99.90;;;;;;5088201;28;20029;-77
2023/01/19 12:39:00;;;;;;;16.13;13.07;;;4.80;99.90;;;;;;5086641;28;20032;-76
2023/01/19 12:41:35;;;;;;;15.73;11.82;;;4.80;99.90;;;;;;5086820;28;20024;-76
2023/01/19 12:47:15;;;;;;;22.10;13.95;;;5.10;99.90;;;;;;5087080;28;20082;-76
2023/01/19 12:49:59;;;;;;;19.75;12.45;;;5.20;99.90;;;;;;5087902;28;20426;-76
2023/01/19 12:52:27;;;;;;;18.83;12.40;;;5.20;99.90;;;;;;5087867;28;20029;-76
2023/01/19 12:55:11;;;;;;;22.75;16.10;;;5.00;99.90;;;;;;5087569;28;20024;-76
2023/01/19 12:57:57;;;;;;;28.00;22.70;;;5.10;99.90;;;;;;5085993;28;20040;-76
2023/01/19 13:00:23;;;;;;;24.55;15.48;;;5.10;99.90;;;;;;5085736;28;20100;-76
2023/01/19 13:02:56;;;;;;;16.17;14.77;;;5.30;99.90;;;;;;5086283;28;20067;-76